2022年5月23日

时间 代码 天气 温度 能见度 乌云 METAR/SPECI
08:30
M
17 °C 10 km+ 2.000 ft 240°   240° 5 kt METAR LFBA 230630Z AUTO 24005KT 210V270 9999 -RA BKN020 OVC027 17/15 Q1010 NOSIG
08:00
M
18 °C 10 km+ 2.100 ft 260°   260° 6 kt METAR LFBA 230600Z AUTO 26006KT 9999 OVC021 18/14 Q1010 NOSIG
07:30
M
17 °C 10 km+ 1.900 ft 280°   280° 10 kt METAR LFBA 230530Z AUTO 28010KT 9999 BKN019 OVC025 17/15 Q1010 NOSIG
07:00
M
18 °C 10 km+ 2.000 ft 280°   280° 8 kt METAR LFBA 230500Z AUTO 28008KT 250V320 9999 OVC020 18/14 Q1009
06:30
M
18 °C 10 km+ 1.900 ft 270°   270° 11 kt METAR LFBA 230430Z AUTO 27011KT 240V300 9999 OVC019 18/14 Q1009
06:00
M
18 °C 10 km+ 1.900 ft 270°   270° 14 kt METAR LFBA 230400Z AUTO 27014KT 230V290 9999 BKN019 OVC024 18/14 Q1009
05:30
M
18 °C 10 km+ 1.500 ft 280°   280° 11 kt METAR LFBA 230330Z AUTO 28011KT 240V320 9999 OVC015 18/15 Q1009
05:00
M
18 °C 10 km+ 1.700 ft 260°   260° 9 kt METAR LFBA 230300Z AUTO 26009KT 9999 OVC017 18/15 Q1009
04:30
M
19 °C 10 km+ 1.600 ft 260°   260° 8 kt METAR LFBA 230230Z AUTO 26008KT 230V290 9999 OVC016 19/16 Q1009
04:00
M
19 °C 10 km+ 1.700 ft 260°   260° 8 kt METAR LFBA 230200Z AUTO 26008KT 9999 OVC017 19/16 Q1009
03:30
M
19 °C 10 km+ 1.600 ft 260°   260° 6 kt METAR LFBA 230130Z AUTO 26006KT 240V310 9999 OVC016/// ///CB 19/16 Q1009
03:00
M
18 °C 10 km+ 1.800 ft 240°   240° 9 kt METAR LFBA 230100Z AUTO 24009KT 180V280 9999 BKN018/// BKN064/// BKN076/// ///CB 18/16 Q1010
02:30
M
19 °C 10 km+ 1.900 ft 290°   290° 13 kt METAR LFBA 230030Z AUTO 29013KT 250V320 9999 -RA BKN019/// BKN049/// BKN070/// ///CB 19/16 Q1009
02:00
M
19 °C 10 km+ 2.000 ft 280°   280° 14 kt METAR LFBA 230000Z AUTO 28014KT 9999 -RA BKN020/// BKN060/// BKN120/// ///CB 19/16 Q1010
01:30
V
20 °C 10 km+ 6.800 ft 260°   260° 10 kt METAR LFBA 222330Z AUTO 26010KT 210V300 9999 SCT021/// BKN068/// BKN120/// //////CB 20/16 Q1010
01:00
V
20 °C 10 km+ 16.000 ft 270°   270° 8 kt METAR LFBA 222300Z AUTO 27008KT 220V300 9999 FEW024/// SCT130/// BKN160/// //////TCU 20/16 Q1009
00:30
V
21 °C 10 km+ 15.000 ft 280°   280° 12 kt METAR LFBA 222230Z AUTO 28012KT 240V300 9999 SCT023 BKN150 OVC170 21/16 Q1009
00:00
V
22 °C 10 km+ - 290°   290° 17 kt METAR LFBA 222200Z AUTO 29017KT CAVOK 22/16 Q1008

2022年5月22日

时间 代码 天气 温度 能见度 乌云 METAR/SPECI
23:30
V
24 °C 10 km+ - 250°   250° 13 23 kt METAR LFBA 222130Z AUTO 25013G23KT 230V290 CAVOK 24/16 Q1007
23:00
V
27 °C 10 km+ - 240°   240° 18 29 kt METAR LFBA 222100Z AUTO 24018G29KT 210V280 CAVOK 27/15 Q1006
22:30
V
25 °C 10 km+ - 150°   150° 3 kt METAR LFBA 222030Z AUTO 15003KT 100V250 9999 ///TCU 25/18 Q1006 TEMPO -TSRA BKN007 BKN060CB
22:00
I
26 °C 2,5 km - Var   Var 2 kt METAR LFBA 222000Z AUTO VRB02KT 6000 2500 //////TCU 26/19 Q1006 TEMPO VRB20G40KT 3000 TSRAGR BKN007 BKN060CB
21:30
V
26 °C 10 km+ - 260°   260° 3 kt METAR LFBA 221930Z AUTO 26003KT CAVOK 26/20 Q1007 TEMPO 3000 TSRAGR BKN007 BKN060CB BECMG 12010KT
21:00
V
27 °C 10 km+ - Var   Var 2 kt METAR LFBA 221900Z AUTO VRB02KT CAVOK 27/20 Q1006 TEMPO VRB20G40KT 3000 TSRAGR SCT015 BKN045CB
20:30
V
27 °C 10 km+ - Var   Var 1 kt METAR LFBA 221830Z AUTO VRB01KT CAVOK 27/19 Q1006 TEMPO VRB20G40KT 3000 TSRAGR SCT015 BKN045CB
20:00
V
28 °C 10 km+ - 290°   290° 2 kt METAR LFBA 221800Z AUTO 29002KT CAVOK 28/21 Q1006 TEMPO VRB20G40KT 3000 TSRAGR SCT015 BKN045CB
19:30
V
29 °C 10 km+ - Var   Var 2 kt METAR LFBA 221730Z AUTO VRB02KT CAVOK 29/19 Q1006 TEMPO VRB20G40KT 3000 TSRAGR SCT015 BKN045CB
19:00
V
29 °C 10 km+ - 110°   110° 6 kt METAR LFBA 221700Z AUTO 11006KT CAVOK 29/19 Q1005 TEMPO VRB20G40KT 3000 TSRAGR SCT015 BKN045CB
18:30
V
30 °C 10 km+ - 120°   120° 8 kt METAR LFBA 221630Z AUTO 12008KT 090V150 9999 //////TCU 30/18 Q1006 TEMPO VRB20G40KT 3000 TSRAGR SCT015 BKN045CB
18:00
V
31 °C 10 km+ - 130°   130° 6 kt METAR LFBA 221600Z AUTO 13006KT 100V160 9999 ///CB 31/19 Q1006 TEMPO VRB20G40KT 3000 TSRAGR
17:30
V
31 °C 10 km+ - 120°   120° 6 kt METAR LFBA 221530Z AUTO 12006KT 9999 ///TCU 31/18 Q1006 TEMPO VRB20G40KT 3000 TSRAGR SCT015 BKN045CB
17:00
V
31 °C 10 km+ - 130°   130° 8 kt METAR LFBA 221500Z AUTO 13008KT 100V160 CAVOK 31/18 Q1007 TEMPO VRB20G40KT 3000 TSRAGR SCT015 BKN045CB
16:30
V
32 °C 10 km+ - 130°   130° 5 kt METAR LFBA 221430Z AUTO 13005KT 090V180 CAVOK 32/19 Q1007 TEMPO VRB20G40KT 3000 TSRAGR SCT015 BKN045CB
16:00
V
31 °C 10 km+ - 110°   110° 7 kt METAR LFBA 221400Z AUTO 11007KT CAVOK 31/21 Q1007 NOSIG
15:30
V
31 °C 10 km+ - 110°   110° 7 kt METAR LFBA 221330Z AUTO 11007KT 080V140 CAVOK 31/19 Q1008 NOSIG
15:00
V
31 °C 10 km+ - 120°   120° 6 kt METAR LFBA 221300Z AUTO 12006KT 090V150 CAVOK 31/19 Q1008 NOSIG
14:30
V
30 °C 10 km+ - 110°   110° 6 kt METAR LFBA 221230Z AUTO 11006KT 060V150 CAVOK 30/19 Q1009 NOSIG
14:00
V
30 °C 10 km+ - 100°   100° 6 kt METAR LFBA 221200Z AUTO 10006KT 050V140 CAVOK 30/20 Q1009 NOSIG
13:30
V
29 °C 10 km+ - 130°   130° 8 kt METAR LFBA 221130Z AUTO 13008KT 100V160 CAVOK 29/20 Q1009 NOSIG
13:00
V
28 °C 10 km+ - 120°   120° 8 kt METAR LFBA 221100Z AUTO 12008KT 090V160 CAVOK 28/20 Q1009 NOSIG
12:30
V
27 °C 10 km+ - 120°   120° 8 kt METAR LFBA 221030Z AUTO 12008KT 080V150 CAVOK 27/20 Q1010 NOSIG
12:00
V
26 °C 10 km+ - 120°   120° 9 kt METAR LFBA 221000Z AUTO 12009KT 090V160 CAVOK 26/20 Q1010 NOSIG
11:30
V
25 °C 10 km+ - 120°   120° 7 kt METAR LFBA 220930Z AUTO 12007KT 090V150 CAVOK 25/20 Q1011 NOSIG
11:00
V
23 °C 10 km+ - 100°   100° 6 kt METAR LFBA 220900Z AUTO 10006KT 060V140 CAVOK 23/20 Q1011 NOSIG
10:30
M
23 °C 10 km+ 1.100 ft Var   Var 3 kt METAR LFBA 220830Z AUTO VRB03KT 9999 BKN011 23/19 Q1012 BECMG NSC
10:00
M
22 °C 9 km 1.000 ft 200°   200° 4 kt METAR LFBA 220800Z AUTO 20004KT 150V240 9000 BKN010 22/19 Q1012 BECMG NSC
09:30
I
21 °C 10 km+ 700 ft 140°   140° 6 kt METAR LFBA 220730Z AUTO 14006KT 100V190 9999 BKN007 21/19 Q1012 BECMG NSC
09:00
I
20 °C 8 km 700 ft Var   Var 3 kt METAR LFBA 220700Z AUTO VRB03KT 8000 OVC007 20/19 Q1012 BECMG NSC
08:30
I
20 °C 7 km 600 ft Var   Var 1 kt METAR LFBA 220630Z AUTO VRB01KT 7000 OVC006 20/19 Q1012 BECMG NSC
08:00
I
20 °C 8 km 600 ft Var   Var 3 kt METAR LFBA 220600Z AUTO VRB03KT 8000 OVC006 20/19 Q1012 BECMG NSC
07:30
V
19 °C 10 km+ - 270°   270° 6 kt METAR LFBA 220530Z AUTO 27006KT 240V300 9999 FEW007 SCT200 19/18 Q1013
07:00
V
19 °C 10 km+ - Var   Var 1 kt METAR LFBA 220500Z AUTO VRB01KT CAVOK 19/17 Q1013
06:30
V
18 °C 10 km+ - 260°   260° 3 kt METAR LFBA 220430Z AUTO 26003KT CAVOK 18/17 Q1012
06:00
I
18 °C 2,4 km - Var   Var 3 kt METAR LFBA 220400Z AUTO VRB03KT 9999 2400 NSC 18/18 Q1012
05:30
V
18 °C 10 km+ - 090°   090° 2 kt METAR LFBA 220330Z AUTO 09002KT CAVOK 18/17 Q1012
05:00
V
18 °C 10 km+ - 300°   300° 2 kt METAR LFBA 220300Z AUTO 30002KT CAVOK 18/17 Q1013
04:30
V
19 °C 10 km+ - Var   000° 0 kt METAR LFBA 220230Z AUTO 00000KT CAVOK 19/19 Q1013
04:00
V
19 °C 10 km+ - Var   000° 0 kt METAR LFBA 220200Z AUTO 00000KT CAVOK 19/18 Q1013
03:30
V
18 °C 10 km+ - 120°   120° 3 kt METAR LFBA 220130Z AUTO 12003KT CAVOK 18/18 Q1012
03:00
V
18 °C 10 km+ - 110°   110° 4 kt METAR LFBA 220100Z AUTO 11004KT CAVOK 18/18 Q1012
02:30
V
18 °C 10 km+ - 130°   130° 4 kt METAR LFBA 220030Z AUTO 13004KT CAVOK 18/17 Q1013
02:00
V
19 °C 10 km+ - Var   Var 2 kt METAR LFBA 220000Z AUTO VRB02KT CAVOK 19/18 Q1013
01:30
V
20 °C 10 km+ - 210°   210° 2 kt METAR LFBA 212330Z AUTO 21002KT CAVOK 20/18 Q1014
01:00
V
20 °C 10 km+ - Var   Var 2 kt METAR LFBA 212300Z AUTO VRB02KT CAVOK 20/19 Q1014
00:30
V
20 °C 10 km+ - 110°   110° 3 kt METAR LFBA 212230Z AUTO 11003KT CAVOK 20/18 Q1014
00:00
V
20 °C 10 km+ - 100°   100° 2 kt METAR LFBA 212200Z AUTO 10002KT CAVOK 20/19 Q1014

2022年5月21日

时间 代码 天气 温度 能见度 乌云 METAR/SPECI
23:30
V
21 °C 10 km+ - Var   Var 2 kt METAR LFBA 212130Z AUTO VRB02KT CAVOK 21/19 Q1014
23:00
V
22 °C 10 km+ - Var   000° 0 kt METAR LFBA 212100Z AUTO 00000KT CAVOK 22/20 Q1014
22:30
V
23 °C 10 km+ - 120°   120° 1 kt METAR LFBA 212030Z AUTO 12001KT CAVOK 23/20 Q1014
22:00
V
24 °C 8 km - 110°   110° 2 kt METAR LFBA 212000Z AUTO 11002KT 8000 NSC 24/20 Q1014 NOSIG
21:30
V
25 °C 10 km+ - 230°   230° 1 kt METAR LFBA 211930Z AUTO 23001KT CAVOK 25/21 Q1014 NOSIG
21:00
V
27 °C 10 km+ - Var   Var 1 kt METAR LFBA 211900Z AUTO VRB01KT CAVOK 27/21 Q1014 NOSIG
20:30
V
28 °C 10 km+ - 170°   170° 1 kt METAR LFBA 211830Z AUTO 17001KT CAVOK 28/20 Q1014 NOSIG
20:00
V
29 °C 10 km+ - Var   Var 2 kt METAR LFBA 211800Z AUTO VRB02KT CAVOK 29/19 Q1014 NOSIG
19:30
V
30 °C 10 km+ - 180°   180° 4 kt METAR LFBA 211730Z AUTO 18004KT 140V200 CAVOK 30/20 Q1014 NOSIG
19:00
V
31 °C 10 km+ - 200°   200° 4 kt METAR LFBA 211700Z AUTO 20004KT CAVOK 31/19 Q1015 NOSIG
18:30
V
32 °C 10 km+ - 150°   150° 4 kt METAR LFBA 211630Z AUTO 15004KT 120V230 CAVOK 32/19 Q1015 NOSIG
18:00
V
32 °C 10 km+ - 130°   130° 5 kt METAR LFBA 211600Z AUTO 13005KT 070V150 CAVOK 32/19 Q1015 NOSIG
17:30
V
32 °C 10 km+ - 100°   100° 4 kt METAR LFBA 211530Z AUTO 10004KT 050V130 CAVOK 32/18 Q1015 NOSIG
17:00
V
32 °C 10 km+ - 140°   140° 3 kt METAR LFBA 211500Z AUTO 14003KT 080V200 CAVOK 32/18 Q1015 NOSIG
16:30
V
32 °C 10 km+ - Var   Var 2 kt METAR LFBA 211430Z AUTO VRB02KT CAVOK 32/19 Q1016 NOSIG
16:00
V
31 °C 10 km+ - Var   Var 2 kt METAR LFBA 211400Z AUTO VRB02KT CAVOK 31/19 Q1016 NOSIG
15:30
V
31 °C 10 km+ - 130°   130° 6 kt METAR LFBA 211330Z AUTO 13006KT 110V190 CAVOK 31/20 Q1016 NOSIG
15:00
V
30 °C 10 km+ - Var   Var 3 kt METAR LFBA 211300Z AUTO VRB03KT CAVOK 30/19 Q1017 NOSIG
14:30
V
30 °C 10 km+ - 260°   260° 3 kt METAR LFBA 211230Z AUTO 26003KT 210V300 CAVOK 30/18 Q1017 NOSIG
14:00
V
29 °C 10 km+ - 120°   120° 6 kt METAR LFBA 211200Z AUTO 12006KT 060V160 CAVOK 29/19 Q1017 NOSIG
13:30
V
29 °C 10 km+ - 120°   120° 6 kt METAR LFBA 211130Z AUTO 12006KT 060V160 CAVOK 29/19 Q1017 NOSIG
13:00
V
28 °C 10 km+ - 100°   100° 5 kt METAR LFBA 211100Z AUTO 10005KT 040V150 CAVOK 28/20 Q1018 NOSIG
12:30
V
27 °C 10 km+ - 090°   090° 5 kt METAR LFBA 211030Z AUTO 09005KT 070V130 CAVOK 27/19 Q1018 NOSIG
12:00
V
26 °C 10 km+ - 080°   080° 4 kt METAR LFBA 211000Z AUTO 08004KT 020V120 CAVOK 26/19 Q1019 NOSIG
11:30
V
25 °C 9 km - 100°   100° 6 kt METAR LFBA 210930Z AUTO 10006KT 050V140 9000 NSC 25/18 Q1019 NOSIG
11:00
V
24 °C 9 km - 090°   090° 5 kt METAR LFBA 210900Z AUTO 09005KT 050V120 9000 NSC 24/18 Q1019 NOSIG
10:30
V
24 °C 9 km - 110°   110° 5 kt METAR LFBA 210830Z AUTO 11005KT 070V150 9000 NSC 24/18 Q1019 NOSIG
10:00
V
23 °C 9 km - 110°   110° 7 kt METAR LFBA 210800Z AUTO 11007KT 080V140 9000 NSC 23/18 Q1020 NOSIG
09:30
V
22 °C 9 km - 110°   110° 6 kt METAR LFBA 210730Z AUTO 11006KT 080V140 9000 NSC 22/18 Q1020 NOSIG
09:00
V
20 °C 9 km - 100°   100° 5 kt METAR LFBA 210700Z AUTO 10005KT 9000 NSC 20/18 Q1020 NOSIG
08:30
V
19 °C 9 km - 110°   110° 4 kt METAR LFBA 210630Z AUTO 11004KT 9000 NSC 19/17 Q1020 NOSIG
08:00
V
18 °C 9 km - 100°   100° 4 kt METAR LFBA 210600Z AUTO 10004KT 9000 NSC 18/17 Q1020 NOSIG
07:30
V
16 °C 10 km+ - 130°   130° 3 kt METAR LFBA 210530Z AUTO 13003KT CAVOK 16/15 Q1020
07:00
V
15 °C 10 km+ - 110°   110° 2 kt METAR LFBA 210500Z AUTO 11002KT CAVOK 15/15 Q1020
较旧的数据

下载我们的应用程序

在您的手机和平板电脑上轻松访问所有航空天气。
有许多网站上没有的功能,如离线支持和个人机场列表。

Studio Eveline

Benalmádena
España

我们和第三方通过cookies跟踪您在我们网站上的上网行为。如果您继续,我们认为您同意我们的cookie政策。 了解更多